Time;durP1;ratioP1;P1;durP2;ratioP2;P2;SDS_P1;SDS_P2;PMS_P1;PMS_P2;Temp;Humidity;BMP_temperature;BMP_pressure;BME280_temperature;BME280_humidity;BME280_pressure;Samples;Min_cycle;Max_cycle;Signal;HPM_P1;HPM_P2
2022/08/05 00:01:44;;;;;;;1.05;0.98;;;;;;;;;;5115536;28;20212;-59
2022/08/05 00:04:31;;;;;;;1.67;1.23;;;;;;;;;;5116590;27;20209;-58
2022/08/05 00:07:18;;;;;;;1.00;1.00;;;;;;;;;;5120974;28;20287;-58
2022/08/05 00:10:05;;;;;;;1.10;1.10;;;;;;;;;;5121009;27;20207;-58
2022/08/05 00:12:52;;;;;;;0.90;0.90;;;;;;;;;;5119119;27;20209;-58
2022/08/05 00:15:39;;;;;;;1.42;1.33;;;;;;;;;;5118704;28;20215;-58
2022/08/05 00:18:28;;;;;;;1.23;1.13;;;;;;;;;;5126733;27;20691;-58
2022/08/05 00:21:17;;;;;;;1.10;1.10;;;;;;;;;;5119460;28;20667;-58
2022/08/05 00:24:05;;;;;;;1.02;1.00;;;;;;;;;;5116546;28;20583;-58
2022/08/05 00:26:52;;;;;;;1.30;1.15;;;;;;;;;;5121972;27;20246;-58
2022/08/05 00:29:39;;;;;;;1.27;1.17;;;;;;;;;;5116396;27;20219;-58
2022/08/05 00:32:26;;;;;;;0.88;0.88;;;;;;;;;;5128208;27;20672;-57
2022/08/05 00:35:14;;;;;;;1.08;1.02;;;;;;;;;;5121134;27;20211;-58
2022/08/05 00:38:01;;;;;;;1.20;1.20;;;;;;;;;;5123917;27;20723;-58
2022/08/05 00:40:50;;;;;;;1.00;1.00;;;;;;;;;;5123409;27;20665;-58
2022/08/05 00:43:37;;;;;;;1.30;1.20;;;;;;;;;;5120044;27;20289;-58
2022/08/05 00:46:24;;;;;;;0.98;0.98;;;;;;;;;;5118399;27;20220;-58
2022/08/05 00:49:12;;;;;;;2.80;1.38;;;;;;;;;;5120609;27;20204;-57
2022/08/05 00:52:00;;;;;;;1.27;1.27;;;;;;;;;;5123884;27;20211;-58
2022/08/05 00:54:47;;;;;;;1.10;1.02;;;;;;;;;;5125268;27;20205;-58
2022/08/05 00:57:34;;;;;;;1.05;1.05;;;;;;;;;;5123899;27;20570;-57
2022/08/05 01:00:29;;;;;;;1.08;1.08;;;;;;;;;;5122008;27;20233;-61
2022/08/05 01:03:16;;;;;;;1.05;1.00;;;;;;;;;;5123646;27;20207;-58
2022/08/05 01:06:03;;;;;;;1.55;1.45;;;;;;;;;;5128140;27;20234;-57
2022/08/05 01:08:51;;;;;;;1.08;1.02;;;;;;;;;;5118754;27;20224;-57
2022/08/05 01:11:40;;;;;;;1.23;1.17;;;;;;;;;;5122837;27;20223;-58
2022/08/05 01:14:35;;;;;;;1.38;1.30;;;;;;;;;;5120591;27;20290;-57
2022/08/05 01:17:29;;;;;;;1.25;1.23;;;;;;;;;;5123192;27;20276;-57
2022/08/05 01:20:24;;;;;;;1.65;1.05;;;;;;;;;;5119592;27;20205;-58
2022/08/05 01:23:22;;;;;;;0.98;0.93;;;;;;;;;;5123228;27;20229;-58
2022/08/05 01:26:33;;;;;;;0.85;0.85;;;;;;;;;;5121395;27;20236;-58
2022/08/05 01:29:29;;;;;;;1.15;1.13;;;;;;;;;;5122358;27;20208;-59
2022/08/05 01:32:20;;;;;;;1.52;1.30;;;;;;;;;;5121162;27;20546;-57
2022/08/05 01:35:11;;;;;;;1.58;1.35;;;;;;;;;;5115940;27;20208;-58
2022/08/05 01:38:01;;;;;;;0.85;0.85;;;;;;;;;;5123847;27;20218;-58
2022/08/05 01:40:48;;;;;;;1.65;1.10;;;;;;;;;;5116279;27;20213;-58
2022/08/05 01:43:37;;;;;;;1.15;1.15;;;;;;;;;;5121936;27;20687;-58
2022/08/05 01:46:26;;;;;;;1.30;1.30;;;;;;;;;;5115846;27;20616;-58
2022/08/05 01:49:18;;;;;;;1.20;1.10;;;;;;;;;;5126749;27;20283;-58
2022/08/05 01:52:06;;;;;;;1.27;1.23;;;;;;;;;;5124993;27;20907;-57
2022/08/05 01:54:57;;;;;;;0.97;0.97;;;;;;;;;;5124669;27;20311;-57
2022/08/05 01:57:46;;;;;;;1.50;1.40;;;;;;;;;;5120478;27;20215;-57
2022/08/05 02:00:37;;;;;;;2.47;1.30;;;;;;;;;;5119386;27;20212;-58
2022/08/05 02:03:31;;;;;;;1.30;1.05;;;;;;;;;;5110793;27;20203;-58
2022/08/05 02:06:18;;;;;;;1.20;1.20;;;;;;;;;;5117972;27;20227;-58
2022/08/05 02:09:06;;;;;;;1.13;1.03;;;;;;;;;;5118355;27;20203;-57
2022/08/05 02:11:59;;;;;;;1.20;1.20;;;;;;;;;;5121530;27;20288;-58
2022/08/05 02:14:50;;;;;;;0.98;0.98;;;;;;;;;;5126999;27;20264;-57
2022/08/05 02:17:44;;;;;;;1.17;1.17;;;;;;;;;;5124663;27;20571;-59
2022/08/05 02:20:42;;;;;;;1.00;1.00;;;;;;;;;;5120327;27;20234;-58
2022/08/05 02:23:32;;;;;;;1.00;1.00;;;;;;;;;;5119827;27;20282;-57
2022/08/05 02:26:24;;;;;;;1.73;1.10;;;;;;;;;;5120942;27;20239;-58
2022/08/05 02:29:13;;;;;;;1.43;1.00;;;;;;;;;;5120721;27;20223;-57
2022/08/05 02:32:01;;;;;;;1.03;1.03;;;;;;;;;;5125850;27;20281;-57
2022/08/05 02:34:49;;;;;;;1.30;1.20;;;;;;;;;;5119002;27;20197;-57
2022/08/05 02:37:39;;;;;;;1.30;1.20;;;;;;;;;;5118854;27;20285;-57
2022/08/05 02:40:27;;;;;;;1.10;1.10;;;;;;;;;;5121215;27;20222;-58
2022/08/05 02:43:15;;;;;;;1.47;1.37;;;;;;;;;;5116983;27;20679;-58
2022/08/05 02:46:02;;;;;;;1.10;1.10;;;;;;;;;;5118633;27;20239;-58
2022/08/05 02:48:50;;;;;;;1.00;1.00;;;;;;;;;;5118055;27;20196;-57
2022/08/05 02:51:38;;;;;;;1.03;1.03;;;;;;;;;;5118681;27;20207;-58
2022/08/05 02:54:28;;;;;;;1.38;1.17;;;;;;;;;;5121272;27;20667;-59
2022/08/05 02:57:17;;;;;;;1.20;1.20;;;;;;;;;;5117087;27;20283;-58
2022/08/05 03:00:06;;;;;;;1.03;1.03;;;;;;;;;;5122899;27;20235;-57
2022/08/05 03:02:54;;;;;;;1.33;1.23;;;;;;;;;;5117093;27;20579;-57
2022/08/05 03:05:41;;;;;;;1.10;1.10;;;;;;;;;;5116389;27;20225;-58
2022/08/05 03:08:29;;;;;;;1.10;1.10;;;;;;;;;;5114493;27;20229;-58
2022/08/05 03:11:18;;;;;;;1.08;1.08;;;;;;;;;;5125133;27;20206;-58
2022/08/05 03:14:05;;;;;;;1.30;1.30;;;;;;;;;;5121325;27;20276;-58
2022/08/05 03:16:52;;;;;;;1.63;1.53;;;;;;;;;;5122644;27;20207;-58
2022/08/05 03:19:39;;;;;;;1.30;1.20;;;;;;;;;;5117962;27;20223;-58
2022/08/05 03:22:26;;;;;;;1.10;1.10;;;;;;;;;;5114978;27;20201;-59
2022/08/05 03:25:13;;;;;;;1.07;1.07;;;;;;;;;;5120299;27;20210;-58
2022/08/05 03:28:03;;;;;;;1.25;1.15;;;;;;;;;;5113530;27;20205;-59
2022/08/05 03:30:50;;;;;;;1.27;1.27;;;;;;;;;;5122198;27;20222;-58
2022/08/05 03:33:38;;;;;;;1.50;0.87;;;;;;;;;;5115182;27;20211;-58
2022/08/05 03:36:25;;;;;;;1.30;1.20;;;;;;;;;;5118808;27;20271;-58
2022/08/05 03:39:13;;;;;;;0.90;0.90;;;;;;;;;;5118885;27;20225;-59
2022/08/05 03:42:00;;;;;;;1.20;1.10;;;;;;;;;;5122629;27;20239;-58
2022/08/05 03:44:48;;;;;;;0.90;0.90;;;;;;;;;;5121764;27;20206;-57
2022/08/05 03:47:35;;;;;;;1.17;1.10;;;;;;;;;;5117806;28;20287;-58
2022/08/05 03:50:22;;;;;;;1.23;1.13;;;;;;;;;;5120748;27;20361;-57
2022/08/05 03:53:13;;;;;;;1.10;1.10;;;;;;;;;;5120369;28;20208;-58
2022/08/05 03:56:05;;;;;;;0.83;0.83;;;;;;;;;;5116686;28;20201;-59
2022/08/05 03:58:55;;;;;;;1.27;1.17;;;;;;;;;;5116729;27;20232;-57
2022/08/05 04:01:47;;;;;;;0.82;0.80;;;;;;;;;;5116873;27;20228;-58
2022/08/05 04:04:35;;;;;;;1.70;0.90;;;;;;;;;;5118668;28;20683;-58
2022/08/05 04:07:23;;;;;;;0.70;0.70;;;;;;;;;;5117440;27;20214;-60
2022/08/05 04:10:10;;;;;;;1.30;1.20;;;;;;;;;;5125178;27;20209;-57
2022/08/05 04:12:57;;;;;;;0.90;0.90;;;;;;;;;;5125284;27;20212;-57
2022/08/05 04:15:46;;;;;;;1.08;1.08;;;;;;;;;;5124268;27;20211;-58
2022/08/05 04:18:35;;;;;;;0.95;0.95;;;;;;;;;;5124213;27;20211;-58
2022/08/05 04:21:22;;;;;;;1.10;1.10;;;;;;;;;;5115566;27;20300;-58
2022/08/05 04:24:09;;;;;;;2.47;0.90;;;;;;;;;;5124932;27;20282;-58
2022/08/05 04:26:56;;;;;;;0.80;0.80;;;;;;;;;;5116275;27;20257;-58
2022/08/05 04:29:43;;;;;;;1.17;1.10;;;;;;;;;;5119953;27;20291;-58
2022/08/05 04:32:29;;;;;;;0.93;0.90;;;;;;;;;;5122337;27;20200;-58
2022/08/05 04:35:18;;;;;;;1.00;1.00;;;;;;;;;;5120407;27;20207;-58
2022/08/05 04:38:05;;;;;;;1.63;0.90;;;;;;;;;;5118831;27;20228;-58
2022/08/05 04:40:52;;;;;;;0.77;0.77;;;;;;;;;;5121330;27;20232;-58
2022/08/05 04:43:39;;;;;;;1.10;1.10;;;;;;;;;;5118725;27;20314;-59
2022/08/05 04:46:26;;;;;;;1.08;1.08;;;;;;;;;;5112488;27;20287;-58
2022/08/05 04:49:13;;;;;;;2.05;1.20;;;;;;;;;;5120729;27;20303;-58
2022/08/05 04:52:02;;;;;;;1.00;1.00;;;;;;;;;;5119267;27;20235;-58
2022/08/05 04:54:49;;;;;;;1.13;0.65;;;;;;;;;;5121896;27;20203;-58
2022/08/05 04:57:36;;;;;;;1.08;0.95;;;;;;;;;;5122636;27;20288;-58
2022/08/05 05:00:23;;;;;;;0.80;0.80;;;;;;;;;;5115516;27;20339;-58
2022/08/05 05:03:11;;;;;;;0.77;0.77;;;;;;;;;;5117449;27;20211;-58
2022/08/05 05:05:58;;;;;;;1.27;0.93;;;;;;;;;;5115868;27;20311;-59
2022/08/05 05:08:47;;;;;;;1.10;1.00;;;;;;;;;;5120732;27;20216;-58
2022/08/05 05:11:34;;;;;;;1.65;1.20;;;;;;;;;;5114168;27;20201;-58
2022/08/05 05:14:20;;;;;;;0.70;0.70;;;;;;;;;;5118191;27;20261;-59
2022/08/05 05:17:07;;;;;;;1.08;1.00;;;;;;;;;;5123031;27;20207;-58
2022/08/05 05:19:54;;;;;;;0.88;0.88;;;;;;;;;;5126169;27;20228;-58
2022/08/05 05:22:41;;;;;;;1.05;1.00;;;;;;;;;;5126117;27;20202;-58
2022/08/05 05:25:30;;;;;;;0.85;0.85;;;;;;;;;;5120892;27;20208;-59
2022/08/05 05:28:17;;;;;;;0.95;0.95;;;;;;;;;;5120918;27;20209;-58
2022/08/05 05:31:04;;;;;;;0.77;0.77;;;;;;;;;;5119264;27;20331;-58
2022/08/05 05:33:51;;;;;;;1.15;1.15;;;;;;;;;;5119965;27;20616;-57
2022/08/05 05:36:38;;;;;;;1.23;1.00;;;;;;;;;;5120619;27;20746;-58
2022/08/05 05:39:25;;;;;;;1.30;0.90;;;;;;;;;;5118129;27;20236;-58
2022/08/05 05:42:13;;;;;;;1.27;0.95;;;;;;;;;;5119166;27;20619;-60
2022/08/05 05:45:00;;;;;;;1.15;1.00;;;;;;;;;;5117416;27;20603;-57
2022/08/05 05:47:47;;;;;;;0.90;0.90;;;;;;;;;;5131214;27;20197;-57
2022/08/05 05:50:35;;;;;;;1.00;1.00;;;;;;;;;;5116970;27;20216;-58
2022/08/05 05:53:22;;;;;;;0.80;0.80;;;;;;;;;;5121824;27;20210;-58
2022/08/05 05:56:09;;;;;;;0.77;0.77;;;;;;;;;;5122463;27;20686;-58
2022/08/05 05:58:57;;;;;;;0.88;0.88;;;;;;;;;;5122061;27;20216;-58
2022/08/05 06:01:44;;;;;;;1.10;0.90;;;;;;;;;;5126994;27;20209;-58
2022/08/05 06:04:31;;;;;;;1.70;1.10;;;;;;;;;;5124563;27;20216;-58
2022/08/05 06:07:18;;;;;;;0.50;0.50;;;;;;;;;;5125976;27;20205;-58
2022/08/05 06:10:07;;;;;;;0.73;0.73;;;;;;;;;;5117120;27;20224;-58
2022/08/05 06:12:54;;;;;;;1.30;0.70;;;;;;;;;;5118651;27;20212;-58
2022/08/05 06:15:42;;;;;;;0.85;0.85;;;;;;;;;;5129206;27;20263;-57
2022/08/05 06:18:29;;;;;;;0.63;0.63;;;;;;;;;;5116974;27;20287;-58
2022/08/05 06:21:17;;;;;;;0.60;0.60;;;;;;;;;;5121012;27;20221;-57
2022/08/05 06:24:05;;;;;;;0.73;0.73;;;;;;;;;;5121997;27;20296;-59
2022/08/05 06:26:52;;;;;;;0.70;0.70;;;;;;;;;;5120877;27;20232;-58
2022/08/05 06:29:39;;;;;;;0.70;0.70;;;;;;;;;;5119722;27;20262;-57
2022/08/05 06:32:28;;;;;;;0.88;0.65;;;;;;;;;;5118918;27;20206;-58
2022/08/05 06:35:15;;;;;;;0.68;0.63;;;;;;;;;;5118286;27;20197;-58
2022/08/05 06:38:03;;;;;;;1.00;0.80;;;;;;;;;;5119860;27;20205;-58
2022/08/05 06:40:50;;;;;;;0.60;0.60;;;;;;;;;;5123815;27;20232;-58
2022/08/05 06:43:37;;;;;;;1.05;0.80;;;;;;;;;;5116766;27;20205;-58
2022/08/05 06:46:25;;;;;;;0.70;0.70;;;;;;;;;;5126555;27;20615;-58
2022/08/05 06:49:13;;;;;;;1.00;0.90;;;;;;;;;;5116016;27;20212;-58
2022/08/05 06:52:00;;;;;;;1.08;0.60;;;;;;;;;;5120659;27;20204;-58
2022/08/05 06:54:47;;;;;;;1.45;0.63;;;;;;;;;;5117880;27;20256;-58
2022/08/05 06:57:34;;;;;;;0.73;0.73;;;;;;;;;;5118417;27;20280;-57
2022/08/05 07:00:21;;;;;;;0.60;0.60;;;;;;;;;;5124870;27;20232;-59
2022/08/05 07:03:08;;;;;;;0.70;0.63;;;;;;;;;;5126914;27;20216;-58
2022/08/05 07:05:56;;;;;;;0.77;0.77;;;;;;;;;;5115959;27;20227;-57
2022/08/05 07:08:44;;;;;;;0.60;0.60;;;;;;;;;;5121587;27;20216;-57
2022/08/05 07:11:32;;;;;;;0.60;0.60;;;;;;;;;;5124578;27;20226;-58
2022/08/05 07:17:23;;;;;;;0.75;0.75;;;;;;;;;;5125537;27;20202;-58
2022/08/05 07:20:10;;;;;;;0.52;0.52;;;;;;;;;;5120548;27;20229;-57
2022/08/05 07:22:59;;;;;;;1.02;0.63;;;;;;;;;;5126909;27;20578;-58
2022/08/05 07:25:46;;;;;;;0.60;0.60;;;;;;;;;;5116370;27;20267;-57
2022/08/05 07:28:33;;;;;;;0.63;0.63;;;;;;;;;;5117894;27;20230;-58
2022/08/05 07:31:20;;;;;;;0.73;0.73;;;;;;;;;;5118588;27;20198;-58
2022/08/05 07:34:07;;;;;;;0.55;0.55;;;;;;;;;;5124139;27;20269;-59
2022/08/05 07:36:54;;;;;;;0.70;0.70;;;;;;;;;;5122712;27;20264;-57
2022/08/05 07:39:42;;;;;;;0.82;0.60;;;;;;;;;;5118409;28;20200;-57
2022/08/05 07:42:30;;;;;;;0.77;0.77;;;;;;;;;;5120094;27;20208;-57
2022/08/05 07:45:17;;;;;;;0.47;0.47;;;;;;;;;;5118453;27;20589;-58
2022/08/05 07:48:05;;;;;;;1.05;0.60;;;;;;;;;;5118065;27;20220;-57
2022/08/05 07:50:52;;;;;;;0.60;0.57;;;;;;;;;;5118080;27;20213;-58
2022/08/05 07:53:38;;;;;;;0.60;0.60;;;;;;;;;;5122131;27;20205;-58
2022/08/05 07:56:27;;;;;;;0.93;0.93;;;;;;;;;;5121514;27;20212;-58
2022/08/05 07:59:14;;;;;;;0.43;0.43;;;;;;;;;;5116896;27;20205;-57
2022/08/05 08:02:01;;;;;;;0.50;0.50;;;;;;;;;;5117576;27;20221;-58
2022/08/05 08:04:48;;;;;;;1.17;0.47;;;;;;;;;;5114613;28;20711;-57
2022/08/05 08:07:35;;;;;;;0.65;0.55;;;;;;;;;;5126217;27;20696;-58
2022/08/05 08:10:22;;;;;;;0.95;0.80;;;;;;;;;;5123905;27;20431;-58
2022/08/05 08:13:11;;;;;;;1.30;0.70;;;;;;;;;;5122033;27;20216;-58
2022/08/05 08:15:58;;;;;;;0.57;0.57;;;;;;;;;;5113259;28;20212;-58
2022/08/05 08:18:45;;;;;;;0.50;0.50;;;;;;;;;;5115700;28;20270;-58
2022/08/05 08:21:32;;;;;;;0.73;0.60;;;;;;;;;;5119781;28;20240;-58
2022/08/05 08:24:19;;;;;;;1.08;0.93;;;;;;;;;;5121256;28;20208;-57
2022/08/05 08:27:07;;;;;;;0.40;0.40;;;;;;;;;;5113795;28;20248;-57
2022/08/05 08:29:55;;;;;;;0.50;0.50;;;;;;;;;;5116667;27;20380;-59
2022/08/05 08:32:42;;;;;;;0.52;0.52;;;;;;;;;;5115520;28;20209;-58
2022/08/05 08:35:29;;;;;;;1.00;0.80;;;;;;;;;;5121455;28;20211;-58
2022/08/05 08:38:16;;;;;;;0.70;0.60;;;;;;;;;;5115002;28;20286;-58
2022/08/05 08:41:09;;;;;;;0.65;0.65;;;;;;;;;;5114827;28;20312;-58
2022/08/05 08:43:57;;;;;;;0.98;0.80;;;;;;;;;;5115977;28;20239;-58
2022/08/05 08:46:47;;;;;;;0.70;0.70;;;;;;;;;;5116463;28;20674;-58
2022/08/05 08:49:36;;;;;;;0.55;0.55;;;;;;;;;;5118125;27;20265;-58
2022/08/05 08:52:24;;;;;;;0.80;0.68;;;;;;;;;;5121188;27;20286;-59
2022/08/05 08:55:12;;;;;;;1.02;0.65;;;;;;;;;;5117783;27;20201;-59
2022/08/05 08:58:01;;;;;;;0.60;0.60;;;;;;;;;;5122814;27;20259;-58
2022/08/05 09:00:48;;;;;;;0.60;0.60;;;;;;;;;;5115434;27;20304;-58
2022/08/05 09:03:37;;;;;;;0.40;0.40;;;;;;;;;;5119559;27;20197;-57
2022/08/05 09:06:24;;;;;;;1.52;0.80;;;;;;;;;;5119912;27;20232;-59
2022/08/05 09:09:11;;;;;;;1.88;0.85;;;;;;;;;;5123329;27;20250;-58
2022/08/05 09:11:58;;;;;;;0.68;0.50;;;;;;;;;;5122070;27;20204;-58
2022/08/05 09:14:45;;;;;;;1.83;0.73;;;;;;;;;;5119622;27;20315;-59
2022/08/05 09:17:32;;;;;;;0.90;0.40;;;;;;;;;;5119375;27;20205;-58
2022/08/05 09:20:21;;;;;;;0.70;0.63;;;;;;;;;;5120568;27;20227;-59
2022/08/05 09:23:13;;;;;;;0.57;0.50;;;;;;;;;;5119116;27;20204;-58
2022/08/05 09:26:08;;;;;;;1.30;0.75;;;;;;;;;;5119787;27;20233;-58
2022/08/05 09:28:59;;;;;;;0.57;0.50;;;;;;;;;;5122566;27;20233;-58
2022/08/05 09:32:01;;;;;;;0.93;0.45;;;;;;;;;;5119726;27;20246;-58
2022/08/05 09:34:49;;;;;;;0.60;0.60;;;;;;;;;;5121339;27;20554;-58
2022/08/05 09:37:39;;;;;;;0.68;0.68;;;;;;;;;;5123930;27;20551;-58
2022/08/05 09:40:35;;;;;;;0.70;0.70;;;;;;;;;;5123565;27;20201;-58
2022/08/05 09:43:31;;;;;;;1.10;0.73;;;;;;;;;;5121128;27;20202;-59
2022/08/05 09:46:27;;;;;;;0.65;0.60;;;;;;;;;;5126399;27;20201;-58
2022/08/05 09:49:23;;;;;;;1.00;0.60;;;;;;;;;;5119367;27;20585;-58
2022/08/05 09:52:21;;;;;;;0.93;0.70;;;;;;;;;;5121493;27;20204;-58
2022/08/05 09:55:11;;;;;;;0.73;0.50;;;;;;;;;;5119936;27;20248;-58
2022/08/05 09:57:58;;;;;;;1.48;0.60;;;;;;;;;;5124273;27;20297;-59
2022/08/05 10:00:59;;;;;;;0.30;0.30;;;;;;;;;;5126720;27;20229;-58
2022/08/05 10:03:58;;;;;;;0.70;0.57;;;;;;;;;;5114374;27;20205;-58
2022/08/05 10:06:54;;;;;;;0.70;0.70;;;;;;;;;;5125689;27;20228;-58
2022/08/05 10:09:54;;;;;;;1.35;0.82;;;;;;;;;;5122412;27;20209;-58
2022/08/05 10:12:44;;;;;;;0.90;0.38;;;;;;;;;;5118576;27;20198;-59
2022/08/05 10:15:34;;;;;;;0.60;0.60;;;;;;;;;;5119012;27;20210;-59
2022/08/05 10:18:22;;;;;;;0.65;0.50;;;;;;;;;;5120375;27;20202;-59
2022/08/05 10:21:09;;;;;;;1.25;0.68;;;;;;;;;;5117292;27;20690;-58
2022/08/05 10:23:56;;;;;;;0.85;0.80;;;;;;;;;;5124456;27;20676;-58
2022/08/05 10:26:44;;;;;;;0.43;0.43;;;;;;;;;;5114124;27;20237;-59
2022/08/05 10:29:35;;;;;;;0.60;0.50;;;;;;;;;;5117095;27;20226;-58
2022/08/05 10:32:23;;;;;;;1.05;0.70;;;;;;;;;;5125936;27;20228;-58
2022/08/05 10:35:10;;;;;;;0.82;0.60;;;;;;;;;;5115176;27;20206;-58
2022/08/05 10:37:59;;;;;;;0.55;0.55;;;;;;;;;;5118817;27;20538;-58
2022/08/05 10:40:56;;;;;;;0.52;0.40;;;;;;;;;;5122132;27;20215;-58
2022/08/05 10:43:50;;;;;;;1.00;0.50;;;;;;;;;;5119675;27;20206;-58
2022/08/05 10:46:49;;;;;;;1.15;0.57;;;;;;;;;;5113380;27;20722;-62
2022/08/05 10:49:56;;;;;;;0.75;0.60;;;;;;;;;;5120365;27;20305;-59
2022/08/05 10:52:46;;;;;;;0.68;0.47;;;;;;;;;;5120073;27;20288;-58
2022/08/05 10:55:33;;;;;;;0.50;0.50;;;;;;;;;;5120592;27;20267;-58
2022/08/05 10:58:20;;;;;;;0.50;0.50;;;;;;;;;;5117087;27;20562;-58
2022/08/05 11:01:07;;;;;;;0.40;0.40;;;;;;;;;;5115985;27;20358;-58
2022/08/05 11:04:04;;;;;;;0.43;0.35;;;;;;;;;;5116381;27;20220;-59
2022/08/05 11:07:05;;;;;;;0.40;0.40;;;;;;;;;;5117626;27;20248;-58
2022/08/05 11:09:53;;;;;;;0.40;0.40;;;;;;;;;;5114475;27;20538;-58
2022/08/05 11:12:44;;;;;;;0.52;0.38;;;;;;;;;;5110748;27;20200;-58
2022/08/05 11:15:34;;;;;;;0.55;0.55;;;;;;;;;;5113206;27;20607;-59
2022/08/05 11:18:27;;;;;;;0.40;0.40;;;;;;;;;;5118864;27;20216;-58
2022/08/05 11:21:33;;;;;;;0.45;0.45;;;;;;;;;;5119657;27;20225;-59
2022/08/05 11:24:22;;;;;;;0.77;0.60;;;;;;;;;;5123675;27;20202;-58
2022/08/05 11:27:31;;;;;;;0.30;0.30;;;;;;;;;;5114183;27;20232;-58
2022/08/05 11:30:18;;;;;;;0.57;0.35;;;;;;;;;;5117687;27;20235;-58
2022/08/05 11:33:28;;;;;;;1.02;0.50;;;;;;;;;;5119391;27;20196;-58
2022/08/05 11:36:17;;;;;;;0.40;0.40;;;;;;;;;;5121593;27;20193;-58
2022/08/05 11:39:10;;;;;;;0.30;0.30;;;;;;;;;;5118301;27;20233;-58
2022/08/05 11:41:58;;;;;;;0.38;0.30;;;;;;;;;;5122537;27;20221;-58
2022/08/05 11:44:46;;;;;;;0.32;0.30;;;;;;;;;;5118606;27;20205;-58
2022/08/05 11:47:36;;;;;;;0.52;0.43;;;;;;;;;;5115885;27;20194;-58
2022/08/05 11:50:23;;;;;;;0.73;0.52;;;;;;;;;;5116957;28;20228;-59
2022/08/05 11:53:11;;;;;;;0.20;0.20;;;;;;;;;;5117420;27;20205;-59
2022/08/05 11:56:02;;;;;;;0.38;0.35;;;;;;;;;;5119841;28;20213;-59
2022/08/05 11:58:51;;;;;;;0.38;0.38;;;;;;;;;;5117272;28;20212;-58
2022/08/05 12:01:52;;;;;;;0.68;0.65;;;;;;;;;;5116197;28;20669;-58
2022/08/05 12:04:41;;;;;;;0.40;0.40;;;;;;;;;;5114980;28;20205;-59
2022/08/05 12:07:34;;;;;;;1.30;0.50;;;;;;;;;;5115867;28;20205;-59
2022/08/05 12:10:22;;;;;;;0.80;0.40;;;;;;;;;;5114119;28;20400;-58
2022/08/05 12:13:11;;;;;;;0.38;0.17;;;;;;;;;;5115610;28;20201;-59
2022/08/05 12:15:57;;;;;;;0.63;0.32;;;;;;;;;;5111671;28;20246;-58
2022/08/05 12:18:45;;;;;;;0.98;0.52;;;;;;;;;;5115608;27;20286;-58
2022/08/05 12:21:34;;;;;;;0.50;0.50;;;;;;;;;;5118782;28;20217;-58
2022/08/05 12:24:21;;;;;;;0.32;0.32;;;;;;;;;;5120688;27;20224;-58
2022/08/05 12:27:08;;;;;;;0.60;0.60;;;;;;;;;;5113313;27;20257;-58
2022/08/05 12:30:01;;;;;;;0.70;0.60;;;;;;;;;;5128339;27;20688;-59
2022/08/05 12:32:50;;;;;;;0.43;0.40;;;;;;;;;;5124813;27;20198;-58
2022/08/05 12:35:37;;;;;;;0.63;0.40;;;;;;;;;;5117405;27;20333;-58
2022/08/05 12:38:24;;;;;;;0.32;0.30;;;;;;;;;;5120157;27;20263;-58
2022/08/05 12:41:12;;;;;;;0.70;0.60;;;;;;;;;;5115529;27;20206;-58
2022/08/05 12:44:01;;;;;;;0.80;0.55;;;;;;;;;;5121748;27;20243;-58
2022/08/05 12:46:54;;;;;;;0.30;0.30;;;;;;;;;;5121622;27;20240;-59
2022/08/05 12:49:47;;;;;;;0.75;0.30;;;;;;;;;;5119620;27;20606;-59
2022/08/05 12:52:35;;;;;;;0.40;0.40;;;;;;;;;;5115557;27;20335;-59
2022/08/05 12:55:24;;;;;;;0.55;0.43;;;;;;;;;;5122248;27;20254;-58
2022/08/05 12:58:23;;;;;;;0.30;0.30;;;;;;;;;;5120230;27;20206;-58
2022/08/05 13:01:13;;;;;;;0.40;0.40;;;;;;;;;;5120365;27;20292;-58
2022/08/05 13:04:02;;;;;;;1.00;0.55;;;;;;;;;;5119702;27;20197;-58
2022/08/05 13:06:49;;;;;;;0.65;0.40;;;;;;;;;;5118164;27;20221;-58
2022/08/05 13:09:36;;;;;;;0.80;0.35;;;;;;;;;;5123228;27;20567;-58
2022/08/05 13:12:25;;;;;;;0.30;0.30;;;;;;;;;;5114308;27;20223;-58
2022/08/05 13:15:13;;;;;;;0.50;0.50;;;;;;;;;;5113935;27;20209;-58
2022/08/05 13:18:00;;;;;;;0.30;0.30;;;;;;;;;;5121094;27;20251;-58
2022/08/05 13:20:49;;;;;;;0.40;0.40;;;;;;;;;;5118061;27;20700;-58
2022/08/05 13:23:36;;;;;;;0.88;0.38;;;;;;;;;;5122816;27;20237;-59
2022/08/05 13:26:23;;;;;;;0.85;0.50;;;;;;;;;;5122595;27;20352;-59
2022/08/05 13:29:10;;;;;;;0.20;0.20;;;;;;;;;;5123410;27;20205;-58
2022/08/05 13:31:58;;;;;;;0.30;0.30;;;;;;;;;;5115591;27;20280;-58
2022/08/05 13:34:46;;;;;;;0.30;0.20;;;;;;;;;;5115449;27;20270;-58
2022/08/05 13:37:34;;;;;;;0.82;0.40;;;;;;;;;;5117803;27;20278;-58
2022/08/05 13:40:21;;;;;;;0.45;0.45;;;;;;;;;;5117052;27;20205;-58
2022/08/05 13:43:08;;;;;;;0.22;0.22;;;;;;;;;;5112421;27;20634;-58
2022/08/05 13:45:55;;;;;;;0.40;0.40;;;;;;;;;;5119548;27;20201;-58
2022/08/05 13:48:42;;;;;;;0.28;0.28;;;;;;;;;;5117182;27;20206;-58
2022/08/05 13:51:31;;;;;;;0.20;0.13;;;;;;;;;;5123232;27;20665;-58
2022/08/05 13:54:20;;;;;;;0.30;0.30;;;;;;;;;;5115078;27;20217;-59
2022/08/05 13:57:07;;;;;;;0.30;0.30;;;;;;;;;;5120682;27;20245;-59
2022/08/05 13:59:54;;;;;;;0.43;0.30;;;;;;;;;;5119378;27;20249;-59
2022/08/05 14:02:40;;;;;;;0.32;0.32;;;;;;;;;;5121800;27;20253;-58
2022/08/05 14:05:28;;;;;;;0.65;0.30;;;;;;;;;;5119475;27;20235;-58
2022/08/05 14:08:15;;;;;;;0.43;0.30;;;;;;;;;;5112616;27;20675;-58
2022/08/05 14:11:04;;;;;;;0.10;0.10;;;;;;;;;;5116719;27;20353;-58
2022/08/05 14:13:50;;;;;;;0.45;0.45;;;;;;;;;;5123874;27;20246;-58
2022/08/05 14:16:37;;;;;;;0.30;0.30;;;;;;;;;;5119409;27;20206;-59
2022/08/05 14:19:24;;;;;;;0.30;0.30;;;;;;;;;;5118971;27;20231;-58
2022/08/05 14:22:12;;;;;;;0.70;0.35;;;;;;;;;;5116172;27;20249;-59
2022/08/05 14:24:59;;;;;;;0.35;0.32;;;;;;;;;;5119952;27;20654;-58
2022/08/05 14:27:48;;;;;;;0.15;0.15;;;;;;;;;;5116269;27;20268;-58
2022/08/05 14:30:35;;;;;;;0.22;0.22;;;;;;;;;;5117056;27;20196;-58
2022/08/05 14:33:22;;;;;;;0.30;0.30;;;;;;;;;;5119444;27;20194;-58
2022/08/05 14:36:09;;;;;;;0.90;0.43;;;;;;;;;;5120771;27;20690;-58
2022/08/05 14:38:56;;;;;;;0.35;0.35;;;;;;;;;;5121739;27;20212;-58
2022/08/05 14:41:43;;;;;;;0.20;0.20;;;;;;;;;;5120251;27;20250;-58
2022/08/05 14:44:31;;;;;;;0.20;0.20;;;;;;;;;;5122183;27;20653;-58
2022/08/05 14:47:18;;;;;;;0.65;0.30;;;;;;;;;;5117152;27;20296;-58
2022/08/05 14:50:06;;;;;;;0.38;0.30;;;;;;;;;;5115607;27;20210;-58
2022/08/05 14:52:53;;;;;;;0.30;0.30;;;;;;;;;;5115418;27;20211;-58
2022/08/05 14:55:40;;;;;;;0.57;0.45;;;;;;;;;;5126484;27;20235;-58
2022/08/05 14:58:27;;;;;;;0.38;0.30;;;;;;;;;;5115673;27;20212;-59
2022/08/05 15:01:16;;;;;;;0.20;0.20;;;;;;;;;;5113017;27;20741;-58
2022/08/05 15:04:05;;;;;;;0.57;0.30;;;;;;;;;;5118514;27;20231;-58
2022/08/05 15:06:52;;;;;;;0.43;0.43;;;;;;;;;;5120360;27;20589;-59
2022/08/05 15:09:39;;;;;;;0.38;0.30;;;;;;;;;;5110817;27;20206;-58
2022/08/05 15:12:26;;;;;;;0.35;0.35;;;;;;;;;;5118518;27;20197;-58
2022/08/05 15:15:13;;;;;;;0.75;0.40;;;;;;;;;;5116028;27;20518;-58
2022/08/05 15:18:02;;;;;;;0.38;0.30;;;;;;;;;;5114038;27;20872;-58
2022/08/05 15:20:49;;;;;;;0.20;0.20;;;;;;;;;;5115262;27;20279;-58
2022/08/05 15:23:35;;;;;;;0.40;0.35;;;;;;;;;;5120422;27;20235;-58
2022/08/05 15:26:22;;;;;;;0.35;0.35;;;;;;;;;;5120120;27;20706;-58
2022/08/05 15:29:09;;;;;;;0.25;0.25;;;;;;;;;;5114001;27;20217;-58
2022/08/05 15:31:57;;;;;;;0.40;0.30;;;;;;;;;;5116685;27;20215;-59
2022/08/05 15:34:45;;;;;;;0.45;0.30;;;;;;;;;;5123110;27;20208;-58
2022/08/05 15:37:32;;;;;;;0.30;0.30;;;;;;;;;;5121046;27;20209;-59
2022/08/05 15:40:19;;;;;;;0.93;0.30;;;;;;;;;;5118297;27;20208;-58
2022/08/05 15:43:06;;;;;;;0.35;0.25;;;;;;;;;;5117959;27;21204;-58
2022/08/05 15:45:53;;;;;;;0.25;0.22;;;;;;;;;;5115824;28;20208;-58
2022/08/05 15:48:40;;;;;;;0.28;0.28;;;;;;;;;;5113465;27;20688;-58
2022/08/05 15:51:29;;;;;;;0.20;0.20;;;;;;;;;;5117518;27;20209;-58
2022/08/05 15:54:16;;;;;;;0.70;0.45;;;;;;;;;;5118806;28;20197;-58
2022/08/05 15:57:04;;;;;;;0.28;0.28;;;;;;;;;;5119621;28;20591;-58
2022/08/05 15:59:51;;;;;;;0.30;0.30;;;;;;;;;;5118883;28;20558;-58
2022/08/05 16:02:38;;;;;;;0.20;0.20;;;;;;;;;;5118765;27;20689;-58
2022/08/05 16:05:25;;;;;;;0.30;0.22;;;;;;;;;;5118462;27;20608;-58
2022/08/05 16:08:13;;;;;;;0.20;0.20;;;;;;;;;;5123442;27;20197;-58
2022/08/05 16:11:00;;;;;;;0.40;0.40;;;;;;;;;;5119871;27;20239;-58
2022/08/05 16:13:47;;;;;;;0.20;0.20;;;;;;;;;;5123836;27;20246;-58
2022/08/05 16:16:35;;;;;;;0.40;0.30;;;;;;;;;;5120623;27;20258;-58
2022/08/05 16:19:22;;;;;;;0.40;0.40;;;;;;;;;;5118755;27;20274;-58
2022/08/05 16:22:09;;;;;;;0.40;0.40;;;;;;;;;;5119231;27;20795;-59
2022/08/05 16:24:57;;;;;;;0.40;0.40;;;;;;;;;;5122569;27;20209;-57
2022/08/05 16:27:44;;;;;;;0.20;0.20;;;;;;;;;;5116664;27;20286;-57
2022/08/05 16:30:32;;;;;;;0.30;0.30;;;;;;;;;;5121192;27;20194;-58
2022/08/05 16:33:19;;;;;;;0.50;0.38;;;;;;;;;;5119298;27;20656;-58
2022/08/05 16:36:06;;;;;;;0.22;0.20;;;;;;;;;;5121662;27;20204;-59
2022/08/05 16:38:53;;;;;;;0.35;0.35;;;;;;;;;;5122145;27;20246;-58
2022/08/05 16:41:42;;;;;;;0.20;0.20;;;;;;;;;;5118090;27;20220;-58
2022/08/05 16:44:29;;;;;;;0.40;0.40;;;;;;;;;;5120313;27;20578;-58
2022/08/05 16:47:16;;;;;;;0.30;0.30;;;;;;;;;;5124426;27;20193;-57
2022/08/05 16:50:04;;;;;;;0.88;0.68;;;;;;;;;;5122763;27;20197;-58
2022/08/05 16:52:51;;;;;;;0.30;0.30;;;;;;;;;;5120387;27;20200;-58
2022/08/05 16:55:38;;;;;;;0.40;0.30;;;;;;;;;;5121751;27;20201;-58